createdAt,value
2023-02-12T00:00:12.297Z,79.39
2023-02-12T00:01:12.271Z,79.59
2023-02-12T00:02:12.260Z,79.69
2023-02-12T00:03:12.250Z,79.9
2023-02-12T00:04:12.238Z,80.1
2023-02-12T00:05:12.232Z,80.55
2023-02-12T00:06:12.218Z,80.75
2023-02-12T00:07:12.205Z,80.96
2023-02-12T00:08:12.195Z,81.05
2023-02-12T00:09:12.187Z,81.26
2023-02-12T00:10:12.176Z,81.05
2023-02-12T00:11:12.184Z,80.75
2023-02-12T00:12:12.153Z,80.85
2023-02-12T00:13:12.142Z,81.4
2023-02-12T00:14:12.132Z,81.71
2023-02-12T00:15:12.125Z,81.6
2023-02-12T00:16:12.118Z,81.6
2023-02-12T00:17:12.096Z,81.6
2023-02-12T00:18:12.086Z,81.6
2023-02-12T00:19:12.076Z,81.6
2023-02-12T00:20:12.068Z,81.71
2023-02-12T00:21:12.077Z,81.71
2023-02-12T00:22:12.057Z,81.51
2023-02-12T00:23:12.039Z,0
2023-02-12T00:24:12.021Z,82.15
2023-02-12T00:25:12.011Z,81.91
2023-02-12T00:26:12.001Z,81.46
2023-02-12T00:27:11.993Z,81.16
2023-02-12T00:28:11.993Z,80.71
2023-02-12T00:29:11.969Z,80.41
2023-02-12T00:30:11.962Z,80.44
2023-02-12T00:31:11.946Z,80.2
2023-02-12T00:32:11.935Z,80.1
2023-02-12T00:33:11.928Z,79.9
2023-02-12T00:34:11.924Z,80
2023-02-12T00:35:11.907Z,79.9
2023-02-12T00:36:11.894Z,79.69
2023-02-12T00:37:11.882Z,79.45
2023-02-12T00:38:11.871Z,0
2023-02-12T00:39:11.870Z,78.64
2023-02-12T00:40:11.877Z,78.94
2023-02-12T00:41:11.841Z,78.94
2023-02-12T00:42:11.830Z,78.74
2023-02-12T00:43:11.820Z,78.77
2023-02-12T00:44:11.809Z,79.04
2023-02-12T00:45:11.795Z,78.94
2023-02-12T00:46:11.820Z,78.74
2023-02-12T00:47:11.773Z,78.33
2023-02-12T00:48:11.768Z,78.84
2023-02-12T00:49:11.759Z,78.84
2023-02-12T00:50:11.745Z,78.53
2023-02-12T00:51:11.737Z,78.53
2023-02-12T00:52:11.749Z,78.53
2023-02-12T00:53:11.717Z,78.33
2023-02-12T00:54:11.701Z,78.02
2023-02-12T00:55:11.693Z,0
2023-02-12T00:56:11.685Z,0
2023-02-12T00:57:11.669Z,0
2023-02-12T00:58:11.673Z,0
2023-02-12T00:59:11.664Z,0
2023-02-12T01:00:11.635Z,82.29
2023-02-12T01:01:11.627Z,0
2023-02-12T01:02:11.627Z,0
2023-02-12T01:03:11.613Z,0
2023-02-12T01:04:11.595Z,0
2023-02-12T01:05:11.610Z,0
2023-02-12T01:06:11.575Z,0
2023-02-12T01:07:11.564Z,82.56
2023-02-12T01:08:11.555Z,82.26
2023-02-12T01:09:11.544Z,0
2023-02-12T01:10:11.529Z,0
2023-02-12T01:11:11.528Z,0
2023-02-12T01:12:11.511Z,0
2023-02-12T01:13:11.501Z,0
2023-02-12T01:14:11.488Z,0
2023-02-12T01:15:11.474Z,0
2023-02-12T01:16:11.477Z,0
2023-02-12T01:17:11.456Z,0
2023-02-12T01:18:11.444Z,0
2023-02-12T01:19:11.447Z,0
2023-02-12T01:20:11.421Z,0
2023-02-12T01:21:11.412Z,0
2023-02-12T01:22:11.403Z,0
2023-02-12T01:23:11.392Z,0
2023-02-12T01:24:11.387Z,0
2023-02-12T01:25:11.394Z,83.42
2023-02-12T01:26:11.357Z,0
2023-02-12T01:27:11.351Z,0
2023-02-12T01:28:11.340Z,0
2023-02-12T01:29:11.326Z,0
2023-02-12T01:30:11.315Z,0
2023-02-12T01:31:11.319Z,0
2023-02-12T01:32:11.296Z,0
2023-02-12T01:33:11.296Z,0
2023-02-12T01:34:11.274Z,0
2023-02-12T01:35:11.266Z,82.97
2023-02-12T01:36:11.254Z,82.67
2023-02-12T01:37:11.270Z,82.53
2023-02-12T01:38:11.235Z,0
2023-02-12T01:39:11.235Z,0
2023-02-12T01:40:11.219Z,0
2023-02-12T01:41:11.199Z,0
2023-02-12T01:42:11.189Z,0
2023-02-12T01:43:11.183Z,0
2023-02-12T01:44:11.169Z,83.07
2023-02-12T01:45:11.182Z,82.73
2023-02-12T01:46:11.148Z,82.18
2023-02-12T01:47:11.136Z,0
2023-02-12T01:48:11.130Z,0
2023-02-12T01:49:11.113Z,0
2023-02-12T01:50:11.105Z,82.67
2023-02-12T01:51:11.119Z,81.46
2023-02-12T01:52:11.095Z,0
2023-02-12T01:53:11.077Z,0
2023-02-12T01:54:11.063Z,0
2023-02-12T01:55:11.048Z,0
2023-02-12T01:56:11.038Z,81.57
2023-02-12T01:57:11.047Z,80.91
2023-02-12T01:58:11.025Z,79.72
2023-02-12T01:59:11.006Z,78.66
2023-02-12T02:00:10.998Z,78.19
2023-02-12T02:01:10.999Z,0
2023-02-12T02:02:10.981Z,79.28
2023-02-12T02:03:10.987Z,0
2023-02-12T02:04:10.958Z,0
2023-02-12T02:05:10.947Z,80.38
2023-02-12T02:06:10.935Z,80.62
2023-02-12T02:07:10.925Z,80.79
2023-02-12T02:08:10.916Z,0
2023-02-12T02:09:10.921Z,0
2023-02-12T02:10:10.917Z,0
2023-02-12T02:11:10.888Z,0
2023-02-12T02:12:10.883Z,0
2023-02-12T02:13:10.862Z,0
2023-02-12T02:14:10.849Z,0
2023-02-12T02:15:10.839Z,0
2023-02-12T02:16:10.842Z,0
2023-02-12T02:17:10.824Z,0
2023-02-12T02:18:10.810Z,0
2023-02-12T02:19:10.801Z,0
2023-02-12T02:20:10.786Z,0
2023-02-12T02:21:10.774Z,0
2023-02-12T02:22:10.765Z,0
2023-02-12T02:23:10.757Z,0
2023-02-12T02:24:10.741Z,0
2023-02-12T02:25:10.730Z,0
2023-02-12T02:26:10.719Z,0
2023-02-12T02:27:10.712Z,0
2023-02-12T02:28:10.702Z,0
2023-02-12T02:29:10.693Z,0
2023-02-12T02:30:10.678Z,0
2023-02-12T02:31:10.671Z,0
2023-02-12T02:32:10.657Z,0
2023-02-12T02:33:10.648Z,81.95
2023-02-12T02:34:10.641Z,0
2023-02-12T02:35:10.644Z,0
2023-02-12T02:36:10.640Z,0
2023-02-12T02:37:10.616Z,81.1
2023-02-12T02:38:10.597Z,80.99
2023-02-12T02:39:10.580Z,0
2023-02-12T02:40:10.582Z,0
2023-02-12T02:41:10.563Z,0
2023-02-12T02:42:10.554Z,0
2023-02-12T02:43:10.542Z,0
2023-02-12T02:44:10.540Z,0
2023-02-12T02:45:10.523Z,0
2023-02-12T02:46:10.515Z,0
2023-02-12T02:47:10.516Z,0
2023-02-12T02:48:10.484Z,0
2023-02-12T02:49:10.477Z,81.95
2023-02-12T02:50:10.466Z,0
2023-02-12T02:51:10.465Z,0
2023-02-12T02:52:10.445Z,0
2023-02-12T02:53:10.434Z,0
2023-02-12T02:54:10.429Z,0
2023-02-12T02:55:10.413Z,0
2023-02-12T02:56:10.403Z,0
2023-02-12T02:57:10.399Z,0
2023-02-12T02:58:10.376Z,0
2023-02-12T02:59:10.369Z,0
2023-02-12T03:00:10.358Z,0
2023-02-12T03:01:10.343Z,0
2023-02-12T03:02:10.337Z,0
2023-02-12T03:03:10.328Z,0
2023-02-12T03:04:10.359Z,0
2023-02-12T03:05:10.300Z,0
2023-02-12T03:06:10.289Z,0
2023-02-12T03:07:10.284Z,0
2023-02-12T03:08:10.275Z,0
2023-02-12T03:09:10.262Z,0
2023-02-12T03:10:10.251Z,0
2023-02-12T03:11:10.245Z,0
2023-02-12T03:12:10.230Z,0
2023-02-12T03:13:10.219Z,0
2023-02-12T03:14:10.208Z,0
2023-02-12T03:15:10.200Z,0
2023-02-12T03:16:10.183Z,0
2023-02-12T03:17:10.195Z,0
2023-02-12T03:18:10.165Z,0
2023-02-12T03:19:10.150Z,0
2023-02-12T03:20:10.151Z,0
2023-02-12T03:21:10.143Z,0
2023-02-12T03:22:10.122Z,0
2023-02-12T03:23:10.116Z,0
2023-02-12T03:24:10.112Z,0
2023-02-12T03:25:10.088Z,0
2023-02-12T03:26:10.077Z,83.89
2023-02-12T03:27:10.079Z,83.79
2023-02-12T03:28:10.056Z,0
2023-02-12T03:29:10.052Z,84.24
2023-02-12T03:30:10.037Z,84.2
2023-02-12T03:31:10.023Z,84
2023-02-12T03:32:10.015Z,83.79
2023-02-12T03:33:10.000Z,83.69
2023-02-12T03:34:09.990Z,83.69
2023-02-12T03:35:09.984Z,83.59
2023-02-12T03:36:09.967Z,83.79
2023-02-12T03:37:09.970Z,83.89
2023-02-12T03:38:09.948Z,83.85
2023-02-12T03:39:09.935Z,83.06
2023-02-12T03:40:09.932Z,81.66
2023-02-12T03:41:09.916Z,80.5
2023-02-12T03:42:09.907Z,79.64
2023-02-12T03:43:09.893Z,78.83
2023-02-12T03:44:09.928Z,78.63
2023-02-12T03:45:09.882Z,0
2023-02-12T03:46:09.860Z,0
2023-02-12T03:47:09.862Z,80.71
2023-02-12T03:48:09.838Z,80.37
2023-02-12T03:49:09.829Z,80.71
2023-02-12T03:50:09.831Z,81.26
2023-02-12T03:51:09.811Z,81.57
2023-02-12T03:52:09.798Z,82.01
2023-02-12T03:53:09.787Z,82.28
2023-02-12T03:54:09.774Z,81.98
2023-02-12T03:55:09.778Z,81.84
2023-02-12T03:56:09.754Z,81.53
2023-02-12T03:57:09.743Z,81.39
2023-02-12T03:58:09.732Z,80.91
2023-02-12T03:59:09.722Z,81.02
2023-02-12T04:00:09.731Z,80.78
2023-02-12T04:01:09.728Z,80.37
2023-02-12T04:02:09.693Z,80.16
2023-02-12T04:03:09.679Z,80.07
2023-02-12T04:04:09.671Z,80.61
2023-02-12T04:05:09.659Z,80.68
2023-02-12T04:06:09.647Z,80.78
2023-02-12T04:07:09.649Z,80.68
2023-02-12T04:08:09.623Z,80.82
2023-02-12T04:09:09.616Z,80.91
2023-02-12T05:47:15.909Z,85.97
2023-02-12T05:48:15.911Z,85.16
2023-02-12T05:49:15.978Z,85.36
2023-02-12T05:50:15.874Z,85.47
2023-02-12T05:51:15.863Z,85.57
2023-02-12T05:52:15.857Z,85.47
2023-02-12T05:53:15.840Z,85.47
2023-02-12T05:54:15.834Z,85.47
2023-02-12T05:55:15.843Z,85.47
2023-02-12T05:56:15.808Z,85.47
2023-02-12T05:57:15.802Z,85.47
2023-02-12T05:58:15.784Z,0
2023-02-12T05:59:15.775Z,85.77
2023-02-12T06:00:15.770Z,85.77
2023-02-12T06:01:15.761Z,85.77
2023-02-12T06:02:15.744Z,85.67
2023-02-12T06:03:15.764Z,85.57
2023-02-12T06:04:15.727Z,85.47
2023-02-12T06:05:15.711Z,85.36
2023-02-12T06:06:15.712Z,85.36
2023-02-12T06:07:15.700Z,85.36
2023-02-12T06:08:15.679Z,0
2023-02-12T06:09:15.672Z,85.5
2023-02-12T06:10:15.655Z,85.47
2023-02-12T06:11:15.646Z,85.71
2023-02-12T06:12:15.655Z,85.81
2023-02-12T06:13:15.623Z,85.91
2023-02-12T06:14:15.612Z,85.91
2023-02-12T06:15:15.613Z,86.02
2023-02-12T06:16:15.621Z,86.22
2023-02-12T06:17:15.591Z,86.32
2023-02-12T06:18:15.583Z,0
2023-02-12T06:19:15.590Z,0
2023-02-12T06:20:15.548Z,0
2023-02-12T06:21:15.547Z,0
2023-02-12T06:22:15.538Z,0
2023-02-12T06:23:15.608Z,0
2023-02-12T06:24:15.543Z,0
2023-02-12T06:25:15.500Z,0
2023-02-12T06:26:15.540Z,0
2023-02-12T06:27:15.479Z,0
2023-02-12T06:28:15.556Z,86.94
2023-02-12T06:29:15.458Z,0
2023-02-12T06:30:15.460Z,0
2023-02-12T06:31:15.450Z,0
2023-02-12T06:32:15.448Z,86.98
2023-02-12T06:33:15.409Z,0
2023-02-12T06:34:15.464Z,0
2023-02-12T06:35:15.391Z,0
2023-02-12T06:36:15.445Z,0
2023-02-12T06:37:15.386Z,86.9
2023-02-12T06:38:15.383Z,86.69
2023-02-12T06:39:15.346Z,86.44
2023-02-12T06:40:15.379Z,85.79
2023-02-12T06:41:15.322Z,85.28
2023-02-12T06:42:15.322Z,84.42
2023-02-12T06:43:15.307Z,84.12
2023-02-12T06:44:15.296Z,83.51
2023-02-12T06:45:15.279Z,83.1
2023-02-12T06:46:15.268Z,83
2023-02-12T06:47:15.260Z,83.14
2023-02-12T06:48:15.250Z,83.24
2023-02-12T06:49:15.238Z,83.59
2023-02-12T06:50:15.227Z,83.69
2023-02-12T06:51:15.224Z,83.89
2023-02-12T06:52:15.208Z,83.95
2023-02-12T06:53:15.195Z,84.06
2023-02-12T06:54:15.253Z,0
2023-02-12T06:55:15.176Z,84.41
2023-02-12T06:56:15.171Z,84.41
2023-02-12T06:57:15.159Z,0
2023-02-12T06:58:15.154Z,0
2023-02-12T06:59:15.154Z,84.41
2023-02-12T07:00:15.128Z,84.36
2023-02-12T07:01:15.110Z,0
2023-02-12T07:02:15.198Z,84.26
2023-02-12T07:03:15.119Z,0
2023-02-12T07:04:15.128Z,84.3
2023-02-12T07:05:15.106Z,84.3
2023-02-12T07:06:15.118Z,0
2023-02-12T07:07:15.050Z,84.3
2023-02-12T07:08:15.030Z,84.5
2023-02-12T07:09:15.024Z,84.3
2023-02-12T07:10:15.011Z,84.16
2023-02-12T07:11:15.008Z,0
2023-02-12T07:12:14.988Z,0
2023-02-12T07:13:14.990Z,0
2023-02-12T07:14:14.978Z,84.85
2023-02-12T07:15:14.968Z,84.81
2023-02-12T07:16:14.956Z,84.5
2023-02-12T07:17:14.948Z,0
2023-02-12T07:18:14.931Z,0
2023-02-12T07:19:14.930Z,0
2023-02-12T07:20:14.922Z,84.85
2023-02-12T07:21:14.902Z,0
2023-02-12T07:22:14.886Z,0
2023-02-12T07:23:14.876Z,0
2023-02-12T07:24:14.859Z,0
2023-02-12T07:25:14.861Z,84.71
2023-02-12T07:26:14.842Z,84.5
2023-02-12T07:27:14.848Z,84.36
2023-02-12T07:28:14.825Z,84.06
2023-02-12T07:29:14.808Z,84.06
2023-02-12T07:30:14.825Z,83.75
2023-02-12T07:31:14.791Z,83.54
2023-02-12T07:32:14.798Z,83.34
2023-02-12T07:33:14.769Z,83.44
2023-02-12T07:34:14.754Z,83.44
2023-02-12T07:35:14.744Z,83.59
2023-02-12T07:36:14.743Z,83.59
2023-02-12T07:37:14.731Z,83.59
2023-02-12T07:38:14.712Z,83.69
2023-02-12T07:39:14.711Z,83.93
2023-02-12T07:40:14.693Z,84.14
2023-02-12T07:41:14.712Z,84.44
2023-02-12T07:42:14.672Z,84.44
2023-02-12T07:43:14.661Z,84.65
2023-02-12T07:44:14.664Z,84.5
2023-02-12T07:45:14.641Z,0
2023-02-12T07:46:14.645Z,0
2023-02-12T07:47:14.622Z,0
2023-02-12T07:48:14.609Z,0
2023-02-12T07:49:14.604Z,84.65
2023-02-12T07:50:14.584Z,84.41
2023-02-12T07:51:14.571Z,84.09
2023-02-12T07:52:14.559Z,83.89
2023-02-12T07:53:14.615Z,0
2023-02-12T07:54:14.555Z,83.69
2023-02-12T07:55:14.537Z,83.85
2023-02-12T07:56:14.519Z,83.54
2023-02-12T07:57:14.510Z,83.44
2023-02-12T07:58:14.498Z,83.65
2023-02-12T07:59:14.482Z,83.24
2023-02-12T08:00:14.472Z,83.28
2023-02-12T08:01:14.480Z,83.38
2023-02-12T08:02:14.474Z,83.69
2023-02-12T08:03:14.449Z,83.79
2023-02-12T08:04:14.430Z,84.14
2023-02-12T08:05:14.424Z,84.14
2023-02-12T08:06:14.420Z,84.24
2023-02-12T08:07:14.415Z,84.65
2023-02-12T08:08:14.391Z,84.75
2023-02-12T08:09:14.421Z,84.75
2023-02-12T08:10:14.372Z,84.85
2023-02-12T08:11:14.351Z,85.06
2023-02-12T08:12:14.400Z,85.06
2023-02-12T08:13:14.332Z,84.85
2023-02-12T08:14:14.323Z,84.75
2023-02-12T08:15:14.315Z,84.61
2023-02-12T08:16:14.312Z,84.41
2023-02-12T08:17:14.296Z,84.41
2023-02-12T08:18:14.298Z,84.41
2023-02-12T08:19:14.287Z,84.3
2023-02-12T08:20:14.287Z,84.2
2023-02-12T08:21:14.256Z,83.95
2023-02-12T08:22:14.249Z,83.54
2023-02-12T08:23:14.245Z,83.65
2023-02-12T08:24:14.219Z,83.75
2023-02-12T08:25:14.205Z,83.75
2023-02-12T08:26:14.235Z,83.65
2023-02-12T08:27:14.193Z,83.65
2023-02-12T08:28:14.191Z,83.75
2023-02-12T08:29:14.162Z,83.75
2023-02-12T08:30:14.150Z,83.54
2023-02-12T08:31:14.155Z,83.2
2023-02-12T08:32:14.137Z,83.4
2023-02-12T08:33:14.122Z,82.83
2023-02-12T08:34:14.140Z,83.04
2023-02-12T08:35:14.093Z,0
2023-02-12T08:36:14.099Z,0
2023-02-12T08:37:14.082Z,83.95
2023-02-12T08:38:14.066Z,0
2023-02-12T08:39:14.064Z,83.1
2023-02-12T08:40:14.044Z,82.83
2023-02-12T08:41:14.037Z,83.04
2023-02-12T08:42:14.025Z,83.04
2023-02-12T08:43:14.007Z,82.93
2023-02-12T08:44:14.000Z,83.04
2023-02-12T08:45:13.990Z,82.93
2023-02-12T08:46:13.994Z,82.83
2023-02-12T08:47:13.973Z,82.93
2023-02-12T08:48:13.977Z,82.69
2023-02-12T08:49:13.970Z,82.59
2023-02-12T08:50:13.943Z,82.69
2023-02-12T08:51:13.932Z,82.83
2023-02-12T08:52:13.921Z,83.04
2023-02-12T08:53:13.908Z,83.04
2023-02-12T08:54:13.892Z,82.93
2023-02-12T08:55:13.881Z,82.73
2023-02-12T08:56:13.882Z,82.83
2023-02-12T08:57:13.869Z,83.28
2023-02-12T08:58:13.880Z,83.65
2023-02-12T08:59:13.844Z,83.65
2023-02-12T09:00:13.830Z,83.54
2023-02-12T09:01:13.821Z,83.54
2023-02-12T09:02:13.834Z,0
2023-02-12T09:03:13.799Z,84
2023-02-12T09:04:13.789Z,84.09
2023-02-12T09:05:13.792Z,84.2
2023-02-12T09:06:13.763Z,84.5
2023-02-12T09:07:13.767Z,84.71
2023-02-12T09:08:13.742Z,84.71
2023-02-12T09:09:13.731Z,84.67
2023-02-12T09:10:13.735Z,84.36
2023-02-12T09:11:13.714Z,84.26
2023-02-12T09:12:13.700Z,84.41
2023-02-12T09:13:13.700Z,85.4
2023-02-12T09:14:13.674Z,0
2023-02-12T09:15:13.691Z,85.88
2023-02-12T09:16:13.670Z,85.42
2023-02-12T09:17:13.657Z,0
2023-02-12T09:18:13.693Z,0
2023-02-12T09:19:13.629Z,85.77
2023-02-12T09:20:13.611Z,85.63
2023-02-12T09:21:13.610Z,84.91
2023-02-12T09:22:13.606Z,0
2023-02-12T09:23:13.579Z,85.63
2023-02-12T09:24:13.574Z,84.88
2023-02-12T09:25:13.575Z,84.36
2023-02-12T09:26:13.553Z,84.06
2023-02-12T09:27:13.557Z,84.26
2023-02-12T09:28:13.544Z,83.85
2023-02-12T09:29:13.528Z,0
2023-02-12T09:30:13.521Z,83.81
2023-02-12T09:31:13.494Z,83.37
2023-02-12T09:32:13.488Z,83.16
2023-02-12T09:33:13.497Z,82.86
2023-02-12T09:34:13.494Z,82.45
2023-02-12T09:35:21.033Z,82.35
2023-02-12T09:36:22.046Z,82.21
2023-02-12T09:37:22.059Z,81.66
2023-02-12T09:38:13.421Z,80.8
2023-02-12T09:39:13.408Z,80.05
2023-02-12T09:40:21.984Z,79.79
2023-02-12T09:41:20.985Z,79.68
2023-02-12T09:42:22.250Z,79.68
2023-02-12T09:43:21.988Z,79.54
2023-02-12T09:44:13.362Z,79.58
2023-02-12T09:45:20.968Z,79.48
2023-02-12T09:46:13.333Z,79.93
2023-02-12T09:47:13.329Z,80.02
2023-02-12T09:48:13.309Z,80.57
2023-02-12T09:49:13.309Z,80.98
2023-02-12T09:50:13.308Z,81.63
2023-02-12T09:51:13.280Z,81.84
2023-02-12T09:52:13.280Z,82.55
2023-02-12T09:53:13.277Z,82.79
2023-02-12T09:54:13.277Z,0
2023-02-12T09:55:13.259Z,83.4
2023-02-12T09:56:13.231Z,83.51
2023-02-12T09:57:13.215Z,83.37
2023-02-12T09:58:13.212Z,0
2023-02-12T09:59:13.198Z,82.75
2023-02-12T10:00:13.184Z,83
2023-02-12T10:01:13.207Z,82.96
2023-02-12T10:02:13.170Z,0
2023-02-12T10:03:13.198Z,0
2023-02-12T10:04:13.152Z,83.1
2023-02-12T10:05:13.152Z,0
2023-02-12T10:06:13.120Z,83.16
2023-02-12T10:07:13.142Z,82.71
2023-02-12T10:08:13.125Z,82.51
2023-02-12T10:09:13.169Z,82.35
2023-02-12T10:10:13.087Z,82.04
2023-02-12T10:11:13.065Z,82.59
2023-02-12T10:12:13.057Z,83.24
2023-02-12T10:13:13.045Z,0
2023-02-12T10:14:13.035Z,0
2023-02-12T10:15:13.023Z,0
2023-02-12T10:16:13.016Z,85.02
2023-02-12T10:17:13.025Z,84.91
2023-02-12T10:18:13.014Z,84.57
2023-02-12T10:19:13.041Z,84.12
2023-02-12T10:20:12.971Z,83.65
2023-02-12T10:21:12.967Z,83.61
2023-02-12T10:22:12.945Z,83.3
2023-02-12T10:23:12.967Z,83.1
2023-02-12T10:24:12.932Z,82.75
2023-02-12T10:25:12.941Z,82.89
2023-02-12T10:26:12.930Z,82.65
2023-02-12T10:27:12.894Z,82.75
2023-02-12T10:28:12.893Z,82.55
2023-02-12T10:29:12.876Z,82.65
2023-02-12T10:30:12.864Z,82.55
2023-02-12T10:31:12.880Z,83
2023-02-12T10:32:12.840Z,83.2
2023-02-12T10:33:12.831Z,82.96
2023-02-12T10:34:12.828Z,82.75
2023-02-12T10:35:12.814Z,83.06
2023-02-12T10:36:12.812Z,82.75
2023-02-12T10:37:12.799Z,82.75
2023-02-12T10:38:12.802Z,82.75
2023-02-12T10:39:12.770Z,82.69
2023-02-12T10:40:12.777Z,83.2
2023-02-12T10:41:12.742Z,83.51
2023-02-12T10:42:12.742Z,83.47
2023-02-12T10:43:12.723Z,83.16
2023-02-12T10:44:12.715Z,83.26
2023-02-12T10:45:12.701Z,83.16
2023-02-12T10:46:12.694Z,83.2
2023-02-12T10:47:12.713Z,83.51
2023-02-12T10:48:12.669Z,83.51
2023-02-12T10:49:12.662Z,83.61
2023-02-12T10:50:12.650Z,83.61
2023-02-12T10:51:12.655Z,83.37
2023-02-12T10:52:12.635Z,83.26
2023-02-12T10:53:12.612Z,82.92
2023-02-12T10:54:12.600Z,82.82
2023-02-12T10:55:12.597Z,82.35
2023-02-12T10:56:12.594Z,82.65
2023-02-12T10:57:12.572Z,82.65
2023-02-12T10:58:12.566Z,82.71
2023-02-12T10:59:12.565Z,82.41
2023-02-12T11:00:12.538Z,82.51
2023-02-12T11:01:12.559Z,82.51
2023-02-12T11:02:12.534Z,82.57
2023-02-12T11:03:12.538Z,81.96
2023-02-12T11:04:12.503Z,0
2023-02-12T11:05:12.484Z,82.45
2023-02-12T11:06:12.517Z,82.35
2023-02-12T11:07:12.477Z,82.75
2023-02-12T11:08:12.458Z,82.75
2023-02-12T11:09:12.456Z,82.86
2023-02-12T11:10:12.468Z,83.1
2023-02-12T11:11:12.422Z,83.4
2023-02-12T11:12:12.408Z,83.81
2023-02-12T11:13:12.407Z,83.61
2023-02-12T11:14:12.400Z,83.61
2023-02-12T11:15:12.379Z,84.12
2023-02-12T11:16:12.374Z,84.01
2023-02-12T11:17:12.384Z,84.22
2023-02-12T11:18:12.355Z,83.87
2023-02-12T11:19:12.339Z,83.78
2023-02-12T11:20:12.326Z,83.37
2023-02-12T11:21:12.320Z,0
2023-02-12T11:22:12.306Z,82.92
2023-02-12T11:23:12.310Z,83.12
2023-02-12T11:24:12.309Z,82.82
2023-02-12T11:25:12.286Z,82.71
2023-02-12T11:26:12.275Z,82.92
2023-02-12T11:27:12.270Z,83.12
2023-02-12T11:28:12.259Z,82.98
2023-02-12T11:29:12.262Z,82.51
2023-02-12T11:30:12.225Z,82.41
2023-02-12T11:31:12.206Z,82.21
2023-02-12T11:32:12.195Z,82.41
2023-02-12T11:33:12.185Z,82.31
2023-02-12T11:34:12.174Z,82.21
2023-02-12T11:35:12.176Z,82.21
2023-02-12T11:36:12.151Z,82.41
2023-02-12T11:37:12.142Z,82.41
2023-02-12T11:38:12.186Z,82.71
2023-02-12T11:39:12.131Z,82.82
2023-02-12T11:40:12.133Z,82.92
2023-02-12T11:41:12.118Z,82.82
2023-02-12T11:42:12.283Z,82.61
2023-02-12T11:43:12.101Z,82.61
2023-02-12T11:44:19.662Z,82.71
2023-02-12T11:45:20.667Z,82.41
2023-02-12T11:46:12.057Z,82.31
2023-02-12T11:47:19.740Z,81.9
2023-02-12T11:48:20.189Z,82.07
2023-02-12T11:49:19.612Z,81.86
2023-02-12T11:50:21.187Z,81.76
2023-02-12T11:51:20.660Z,81.66
2023-02-12T11:52:19.570Z,81.21
2023-02-12T11:53:19.574Z,81.07
2023-02-12T11:55:39.308Z,79.99
2023-02-12T11:56:48.160Z,80.5
2023-02-12T11:57:47.911Z,80.26
2023-02-12T11:58:46.865Z,80.36
2023-02-12T11:59:47.823Z,80.26
2023-02-12T12:00:49.127Z,80.6
2023-02-12T12:01:46.819Z,80.91
2023-02-12T12:02:48.476Z,80.91
2023-02-12T12:03:47.811Z,80.8
2023-02-12T12:04:46.803Z,80.6
2023-02-12T12:05:46.768Z,80.91
2023-02-12T12:06:47.794Z,80.84
2023-02-12T12:07:39.166Z,0
2023-02-12T12:08:46.726Z,81.39
2023-02-12T12:13:36.321Z,82.41
2023-02-12T12:14:44.923Z,82.21
2023-02-12T16:58:49.948Z,75.74
2023-02-12T16:59:49.928Z,75.98
2023-02-12T17:00:49.922Z,0
2023-02-12T17:01:49.919Z,0
2023-02-12T17:02:49.903Z,75.95
2023-02-12T17:03:49.917Z,0
2023-02-12T17:04:49.897Z,75.5
2023-02-12T17:05:49.887Z,74.31
2023-02-12T17:06:49.859Z,73.33
2023-02-12T17:07:49.849Z,72.48
2023-02-12T17:08:49.854Z,0
2023-02-12T17:09:49.828Z,0
2023-02-12T17:10:49.814Z,73.5
2023-02-12T17:11:49.799Z,73.06
2023-02-12T17:12:49.795Z,72.31
2023-02-12T17:13:49.803Z,72.65
2023-02-12T17:14:49.782Z,72.31
2023-02-12T17:15:49.781Z,72.52
2023-02-12T17:16:49.749Z,0
2023-02-12T17:17:49.739Z,0
2023-02-12T17:18:49.727Z,0
2023-02-12T17:19:49.723Z,0
2023-02-12T17:20:49.706Z,75.3
2023-02-12T17:21:49.721Z,74.65
2023-02-12T17:22:49.684Z,74.01
2023-02-12T17:23:49.675Z,73.8
2023-02-12T17:24:49.668Z,73.5
2023-02-12T17:25:49.668Z,73.5
2023-02-12T17:26:49.669Z,73.3
2023-02-12T17:27:49.636Z,0
2023-02-12T17:28:49.635Z,0
2023-02-12T17:29:49.614Z,0
2023-02-12T17:30:49.607Z,75.67
2023-02-12T17:31:49.611Z,75.84
2023-02-12T17:32:49.584Z,76.04
2023-02-12T17:33:49.573Z,75.81
2023-02-12T17:34:49.571Z,75.5
2023-02-12T17:35:49.587Z,75.3
2023-02-12T17:36:49.556Z,74.96
2023-02-12T17:37:49.530Z,74.52
2023-02-12T17:38:49.520Z,73.6
2023-02-12T17:39:49.611Z,73.5
2023-02-12T17:40:49.498Z,73.6
2023-02-12T17:41:49.505Z,73.94
2023-02-12T17:42:49.487Z,0
2023-02-12T17:43:49.503Z,0
2023-02-12T17:44:49.498Z,0
2023-02-12T17:45:49.459Z,0
2023-02-12T17:46:49.455Z,0
2023-02-12T17:47:49.528Z,0
2023-02-12T17:48:49.452Z,0
2023-02-12T17:49:49.406Z,76.69
2023-02-12T17:50:49.397Z,76.49
2023-02-12T17:51:49.412Z,76.28
2023-02-12T17:52:49.382Z,76.18
2023-02-12T17:53:49.370Z,76.15
2023-02-12T17:54:49.358Z,75.74
2023-02-12T17:55:49.371Z,75.5
2023-02-12T17:56:49.334Z,75.3
2023-02-12T17:57:49.325Z,74.99
2023-02-12T17:58:49.319Z,75.3
2023-02-12T17:59:49.299Z,75.5
2023-02-12T18:00:49.309Z,75.09
2023-02-12T18:01:49.289Z,74.69
2023-02-12T18:02:49.273Z,74.58
2023-02-12T18:03:49.261Z,74.55
2023-02-12T18:04:49.249Z,74.04
2023-02-12T18:05:49.257Z,74.15
2023-02-12T18:06:49.244Z,74.04
2023-02-12T18:07:49.221Z,74.04
2023-02-12T18:08:49.217Z,73.94
2023-02-12T18:09:49.198Z,0
2023-02-12T18:10:49.196Z,74.62
2023-02-12T18:11:49.203Z,74.58
2023-02-12T18:12:49.183Z,74.24
2023-02-12T18:13:49.155Z,73.94
2023-02-12T18:14:49.197Z,73.7
2023-02-12T18:15:49.138Z,73.19
2023-02-12T18:16:49.136Z,73.3
2023-02-12T18:17:49.151Z,73.09
2023-02-12T18:18:49.127Z,72.75
2023-02-12T18:19:49.089Z,0
2023-02-12T18:20:49.097Z,0
2023-02-12T18:21:49.074Z,0
2023-02-12T18:22:49.073Z,0
2023-02-12T18:23:49.055Z,0
2023-02-12T18:24:49.045Z,0
2023-02-12T18:25:49.033Z,0
2023-02-12T18:26:49.093Z,0
2023-02-12T18:27:49.019Z,0
2023-02-12T18:28:49.015Z,0
2023-02-12T18:29:49.012Z,0
2023-02-12T18:30:48.978Z,76.9
2023-02-12T18:31:48.972Z,75.6
2023-02-12T18:32:48.961Z,74.85
2023-02-12T18:33:48.955Z,74.45
2023-02-12T18:34:48.946Z,74.35
2023-02-12T18:35:48.932Z,0
2023-02-12T18:36:48.918Z,0
2023-02-12T18:37:48.907Z,0
2023-02-12T18:38:48.936Z,0
2023-02-12T18:39:48.890Z,0
2023-02-12T18:40:48.922Z,0
2023-02-12T18:41:48.872Z,0
2023-02-12T18:42:48.858Z,0
2023-02-12T18:43:48.852Z,0
2023-02-12T18:44:48.839Z,0
2023-02-12T18:45:48.831Z,0
2023-02-12T18:46:48.842Z,78.8
2023-02-12T18:47:48.819Z,78.05
2023-02-12T18:48:48.793Z,77.03
2023-02-12T18:49:48.788Z,76.9
2023-02-12T18:50:48.778Z,76.35
2023-02-12T18:51:48.762Z,75.84
2023-02-12T18:52:48.767Z,75.64
2023-02-12T18:53:48.767Z,75.13
2023-02-12T18:54:48.734Z,0
2023-02-12T18:55:48.747Z,0
2023-02-12T18:56:48.710Z,0
2023-02-12T18:57:48.711Z,77.48
2023-02-12T18:58:48.712Z,76.69
2023-02-12T18:59:48.675Z,76.9
2023-02-12T19:00:48.668Z,76.39
2023-02-12T19:01:48.661Z,76.83
2023-02-12T19:02:48.694Z,0
2023-02-12T19:03:48.683Z,0
2023-02-12T19:04:48.640Z,0
2023-02-12T19:05:48.644Z,79.04
2023-02-12T19:06:48.611Z,79.39
2023-02-12T19:07:48.633Z,79.45
2023-02-12T19:08:48.613Z,0
2023-02-12T19:09:48.581Z,78.6
2023-02-12T19:10:48.581Z,78.3
2023-02-12T19:11:48.582Z,78.39
2023-02-12T19:12:48.545Z,77.64
2023-02-12T19:13:48.608Z,77.1
2023-02-12T19:14:49.528Z,76.28
2023-02-12T19:15:48.533Z,0
2023-02-12T19:16:48.522Z,76.83
2023-02-12T19:17:48.554Z,77.24
2023-02-12T19:18:48.482Z,77.17
2023-02-12T19:19:48.468Z,0
2023-02-12T19:20:48.476Z,0
2023-02-12T19:21:48.610Z,77.78
2023-02-12T19:22:48.440Z,77.98
2023-02-12T19:23:48.431Z,77.89
2023-02-12T19:24:48.426Z,77.64
2023-02-12T19:25:48.409Z,77.1
2023-02-12T19:26:48.401Z,76.49
2023-02-12T19:27:48.401Z,76.35
2023-02-12T19:28:48.395Z,75.64
2023-02-12T19:29:48.373Z,75.54
2023-02-12T19:30:48.355Z,75.64
2023-02-12T19:31:48.350Z,75.23
2023-02-12T19:32:48.376Z,75.43
2023-02-12T19:33:48.330Z,75.33
2023-02-12T19:34:48.339Z,75.33
2023-02-12T19:35:48.305Z,75.74
2023-02-12T19:36:48.296Z,75.78
2023-02-12T19:37:48.291Z,76.08
2023-02-12T19:38:48.276Z,76.62
2023-02-12T19:39:48.265Z,77.14
2023-02-12T19:40:48.282Z,77.17
2023-02-12T19:41:48.239Z,77.89
2023-02-12T19:42:48.237Z,78.53
2023-02-12T19:43:48.219Z,78.74
2023-02-12T19:44:48.214Z,78.6
2023-02-12T19:45:48.242Z,78.7
2023-02-12T19:46:48.209Z,78.16
2023-02-12T19:47:48.217Z,77.95
2023-02-12T19:48:48.168Z,77.75
2023-02-12T19:49:48.167Z,0
2023-02-12T19:50:48.157Z,0
2023-02-12T19:51:48.141Z,0
2023-02-12T19:52:48.137Z,0